createdAt,value
2022-09-22T00:02:43.377Z,102596.97
2022-09-22T00:05:48.695Z,102590.84
2022-09-22T00:08:55.026Z,102591.69
2022-09-22T00:11:58.594Z,102589.97
2022-09-22T00:15:03.265Z,102595.06
2022-09-22T00:18:06.887Z,102588.06
2022-09-22T00:21:15.180Z,102601.88
2022-09-22T00:24:20.994Z,102599.19
2022-09-22T00:27:25.624Z,102597.34
2022-09-22T00:30:31.338Z,102601.66
2022-09-22T00:33:35.870Z,102601.66
2022-09-22T00:36:40.828Z,102596.38
2022-09-22T00:39:44.386Z,102593.75
2022-09-22T00:42:47.923Z,102598.06
2022-09-22T00:45:57.014Z,102598.06
2022-09-22T00:49:06.534Z,102590.34
2022-09-22T00:52:14.986Z,102594.66
2022-09-22T00:55:25.926Z,102586.00
2022-09-22T00:58:38.054Z,102581.53
2022-09-22T01:01:42.117Z,102590.00
2022-09-22T01:04:47.965Z,102583.03
2022-09-22T01:07:54.538Z,102584.78
2022-09-22T01:10:59.867Z,102582.09
2022-09-22T01:14:17.500Z,102574.25
2022-09-22T01:17:37.805Z,102575.97
2022-09-22T01:21:21.155Z,102570.72
2022-09-22T01:25:03.855Z,102571.53
2022-09-22T01:28:41.108Z,102576.72
2022-09-22T01:31:55.547Z,102567.13
2022-09-22T01:35:08.499Z,102563.63
2022-09-22T01:38:18.100Z,102560.13
2022-09-22T01:41:46.728Z,102563.63
2022-09-22T01:44:56.420Z,102553.22
2022-09-22T01:48:09.138Z,102550.66
2022-09-22T01:51:19.791Z,102546.28
2022-09-22T01:54:33.274Z,102541.94
2022-09-22T01:57:46.644Z,102551.44
2022-09-22T02:00:57.052Z,102542.81
2022-09-22T02:04:09.782Z,102546.25
2022-09-22T02:07:24.775Z,102544.47
2022-09-22T02:10:38.022Z,102543.63
2022-09-22T02:13:42.747Z,102531.47
2022-09-22T02:16:46.550Z,102537.53
2022-09-22T02:19:52.319Z,102537.50
2022-09-22T02:22:56.397Z,102532.28
2022-09-22T02:26:02.866Z,102531.41
2022-09-22T02:29:13.116Z,102529.59
2022-09-22T02:32:20.580Z,102529.56
2022-09-22T02:35:31.531Z,102527.78
2022-09-22T02:38:45.956Z,102531.19
2022-09-22T02:42:15.543Z,102531.09
2022-09-22T02:45:27.816Z,102531.94
2022-09-22T02:48:39.914Z,102523.38
2022-09-22T02:51:46.712Z,102522.53
2022-09-22T02:54:50.239Z,102518.94
2022-09-22T02:57:54.539Z,102518.97
2022-09-22T03:00:58.233Z,102512.91
2022-09-22T03:04:01.958Z,102517.22
2022-09-22T03:07:07.344Z,102510.31
2022-09-22T03:10:12.436Z,102517.06
2022-09-22T03:13:17.591Z,102508.31
2022-09-22T03:16:21.462Z,102510.88
2022-09-22T03:19:25.459Z,102510.94
2022-09-22T03:22:30.379Z,102507.41
2022-09-22T03:25:34.191Z,102514.31
2022-09-22T03:28:37.786Z,102508.22
2022-09-22T03:31:41.474Z,102504.72
2022-09-22T03:34:45.106Z,102502.13
2022-09-22T03:37:50.055Z,102504.69
2022-09-22T03:40:54.349Z,102500.31
2022-09-22T03:43:58.620Z,102502.91
2022-09-22T03:47:02.798Z,102494.22
2022-09-22T03:50:07.572Z,102502.00
2022-09-22T03:53:12.610Z,102501.06
2022-09-22T03:56:17.578Z,102493.19
2022-09-22T03:59:21.197Z,102494.88
2022-09-22T04:02:24.873Z,102496.56
2022-09-22T04:05:28.683Z,102490.44
2022-09-22T04:08:33.673Z,102490.31
2022-09-22T04:11:37.660Z,102489.41
2022-09-22T04:14:41.302Z,102487.72
2022-09-22T04:17:46.481Z,102479.94
2022-09-22T04:20:51.390Z,102485.13
2022-09-22T04:23:57.466Z,102482.50
2022-09-22T04:27:19.857Z,102478.13
2022-09-22T04:30:24.129Z,102476.34
2022-09-22T04:33:27.858Z,102473.94
2022-09-22T04:36:31.571Z,102475.75
2022-09-22T04:39:36.951Z,102474.84
2022-09-22T04:42:40.763Z,102474.00
2022-09-22T04:45:47.265Z,102473.22
2022-09-22T04:48:50.891Z,102472.16
2022-09-22T04:51:54.398Z,102469.53
2022-09-22T04:54:59.471Z,102477.19
2022-09-22T04:58:03.197Z,102469.34
2022-09-22T05:01:08.364Z,102469.28
2022-09-22T05:04:12.146Z,102470.13
2022-09-22T05:07:16.090Z,102465.84
2022-09-22T05:10:25.179Z,102466.66
2022-09-22T05:13:30.340Z,102467.44
2022-09-22T05:16:34.145Z,102476.00
2022-09-22T05:19:37.794Z,102471.72
2022-09-22T05:22:41.750Z,102472.56
2022-09-22T05:25:46.691Z,102476.91
2022-09-22T05:28:51.124Z,102478.72
2022-09-22T05:31:55.049Z,102478.78
2022-09-22T05:34:58.744Z,102479.72
2022-09-22T05:38:02.444Z,102476.53
2022-09-22T05:41:07.746Z,102474.84
2022-09-22T05:44:11.406Z,102482.75
2022-09-22T05:47:15.109Z,102478.34
2022-09-22T05:50:21.091Z,102477.47
2022-09-22T05:53:24.752Z,102483.56
2022-09-22T05:56:31.766Z,102484.56
2022-09-22T05:59:35.380Z,102490.78
2022-09-22T06:02:39.247Z,102487.34
2022-09-22T06:05:43.388Z,102489.16
2022-09-22T06:08:49.088Z,102485.78
2022-09-22T06:11:54.238Z,102486.78
2022-09-22T06:14:57.831Z,102492.09
2022-09-22T06:18:02.300Z,102494.03
2022-09-22T06:21:07.163Z,102496.69
2022-09-22T06:24:10.762Z,102490.00
2022-09-22T06:27:15.786Z,102490.13
2022-09-22T06:30:19.523Z,102492.00
2022-09-22T06:33:24.053Z,102494.72
2022-09-22T06:36:31.300Z,102493.19
2022-09-22T06:39:37.719Z,102498.47
2022-09-22T06:42:42.813Z,102490.78
2022-09-22T06:45:47.265Z,102492.72
2022-09-22T06:48:52.059Z,102489.44
2022-09-22T06:51:55.676Z,102481.75
2022-09-22T06:55:00.913Z,102477.69
2022-09-22T06:58:05.971Z,102483.03
2022-09-22T07:01:10.273Z,102485.84
2022-09-22T07:04:14.916Z,102483.34
2022-09-22T07:07:18.503Z,102476.53
2022-09-22T07:10:22.182Z,102474.84
2022-09-22T07:13:28.188Z,102467.13
2022-09-22T07:16:31.925Z,102473.25
2022-09-22T07:19:36.548Z,102473.28
2022-09-22T07:22:40.711Z,102472.47
2022-09-22T07:25:44.597Z,102468.09
2022-09-22T07:28:54.170Z,102467.22
2022-09-22T07:31:59.551Z,102469.81
2022-09-22T07:35:03.415Z,102462.84
2022-09-22T07:38:07.507Z,102455.78
2022-09-22T07:41:14.482Z,102455.75
2022-09-22T07:44:39.834Z,102453.00
2022-09-22T07:48:04.934Z,102454.59
2022-09-22T07:51:16.514Z,102451.78
2022-09-22T07:54:21.364Z,102453.28
2022-09-22T07:57:25.297Z,102449.50
2022-09-22T08:00:33.343Z,102446.41
2022-09-22T08:03:38.129Z,102448.00
2022-09-22T08:06:41.726Z,102452.66
2022-09-22T08:09:45.232Z,102441.44
2022-09-22T08:12:49.616Z,102439.59
2022-09-22T08:15:56.478Z,102435.38
2022-09-22T08:19:03.257Z,102439.56
2022-09-22T08:22:07.058Z,102441.44
2022-09-22T08:25:12.502Z,102435.59
2022-09-22T08:28:16.091Z,102436.91
2022-09-22T08:31:21.949Z,102431.72
2022-09-22T08:34:25.647Z,102435.06
2022-09-22T08:37:29.520Z,102436.19
2022-09-22T08:40:33.215Z,102428.94
2022-09-22T08:43:44.256Z,102432.31
2022-09-22T08:46:50.306Z,102434.91
2022-09-22T08:50:11.664Z,102435.47
2022-09-22T08:53:21.582Z,102437.00
2022-09-22T08:56:33.330Z,102446.13
2022-09-22T08:59:47.069Z,102438.84
2022-09-22T09:03:15.088Z,102436.34
2022-09-22T09:06:26.356Z,102443.41
2022-09-22T09:09:50.546Z,102430.88
2022-09-22T09:13:14.341Z,102432.84
2022-09-22T09:16:39.647Z,102432.53
2022-09-22T09:19:48.544Z,102430.19
2022-09-22T09:22:56.467Z,102423.53
2022-09-22T09:26:01.286Z,102429.53
2022-09-22T09:29:09.552Z,102423.63
2022-09-22T09:32:32.269Z,102426.06
2022-09-22T09:35:46.241Z,102416.91
2022-09-22T09:38:55.945Z,102409.16
2022-09-22T09:42:02.822Z,102401.53
2022-09-22T09:45:10.327Z,102401.72
2022-09-22T09:48:28.428Z,102404.00
2022-09-22T09:51:39.940Z,102400.31
2022-09-22T09:54:47.354Z,102393.38
2022-09-22T09:58:09.145Z,102386.31
2022-09-22T10:01:15.036Z,102389.34
2022-09-22T10:04:32.732Z,102386.75
2022-09-22T10:07:45.862Z,102388.75
2022-09-22T10:10:49.912Z,102387.16
2022-09-22T10:13:58.366Z,102389.13
2022-09-22T10:17:04.117Z,102378.59
2022-09-22T10:20:23.000Z,102374.16
2022-09-22T10:23:32.094Z,102375.63
2022-09-22T10:26:35.679Z,102373.63
2022-09-22T10:29:41.900Z,102370.09
2022-09-22T10:33:21.049Z,102378.88
2022-09-22T10:36:27.114Z,102366.84
2022-09-22T10:39:45.463Z,102360.09
2022-09-22T10:42:53.122Z,102354.97
2022-09-22T10:46:20.680Z,102358.69
2022-09-22T10:49:49.444Z,102359.25
2022-09-22T10:53:05.666Z,102361.13
2022-09-22T10:56:23.531Z,102353.84
2022-09-22T10:59:56.645Z,102356.38
2022-09-22T11:03:53.037Z,102344.81
2022-09-22T11:07:45.428Z,102338.56
2022-09-22T11:11:22.619Z,102344.13
2022-09-22T11:14:42.561Z,102340.38
2022-09-22T11:18:08.643Z,102344.34
2022-09-22T11:21:31.283Z,102337.97
2022-09-22T11:24:58.224Z,102335.44
2022-09-22T11:28:24.491Z,102334.72
2022-09-22T11:31:43.948Z,102340.38
2022-09-22T11:35:18.034Z,102333.97
2022-09-22T11:39:06.366Z,102334.63
2022-09-22T11:42:25.200Z,102324.28
2022-09-22T11:45:54.210Z,102329.72
2022-09-22T11:49:16.703Z,102324.00
2022-09-22T11:52:48.590Z,102311.22
2022-09-22T11:56:16.206Z,102304.41
2022-09-22T11:59:43.361Z,102293.00
2022-09-22T12:02:54.889Z,102298.03
2022-09-22T12:06:04.723Z,102295.16
2022-09-22T12:09:27.118Z,102293.03
2022-09-22T12:12:33.498Z,102302.41
2022-09-22T12:15:49.212Z,102296.28
2022-09-22T12:19:01.252Z,102285.91
2022-09-22T12:22:17.799Z,102284.59
2022-09-22T12:25:49.323Z,102279.13
2022-09-22T12:28:53.324Z,102267.03
2022-09-22T12:32:00.073Z,102268.69
2022-09-22T12:35:05.015Z,102263.06
2022-09-22T12:38:14.484Z,102267.56
2022-09-22T12:41:21.342Z,102265.63
2022-09-22T12:44:30.006Z,102254.19
2022-09-22T12:47:37.746Z,102251.00
2022-09-22T12:50:43.248Z,102257.25
2022-09-22T12:53:48.290Z,102248.16
2022-09-22T12:56:59.159Z,102251.69
2022-09-22T13:00:32.092Z,102250.75
2022-09-22T13:03:52.671Z,102245.72
2022-09-22T13:06:59.839Z,102242.47
2022-09-22T13:10:58.338Z,102240.41
2022-09-22T13:14:01.924Z,102232.69
2022-09-22T13:17:40.336Z,102229.53
2022-09-22T13:20:44.210Z,102230.88
2022-09-22T13:23:58.313Z,102229.59
2022-09-22T13:27:06.844Z,102230.75
2022-09-22T13:30:15.367Z,102223.97
2022-09-22T13:33:25.813Z,102216.56
2022-09-22T13:36:29.359Z,102215.72
2022-09-22T13:39:42.238Z,102206.97
2022-09-22T13:42:50.192Z,102206.88
2022-09-22T13:45:54.874Z,102204.97
2022-09-22T13:49:00.927Z,102203.25
2022-09-22T13:52:09.918Z,102203.53
2022-09-22T13:55:22.810Z,102201.28
2022-09-22T13:58:39.414Z,102201.41
2022-09-22T14:01:51.463Z,102202.31
2022-09-22T14:04:59.303Z,102192.72
2022-09-22T14:08:12.928Z,102200.38
2022-09-22T14:11:22.591Z,102193.34
2022-09-22T14:14:29.062Z,102196.97
2022-09-22T14:17:32.752Z,102199.84
2022-09-22T14:20:40.682Z,102182.97
2022-09-22T14:23:47.584Z,102173.94
2022-09-22T14:26:54.045Z,102180.78
2022-09-22T14:30:00.432Z,102178.31
2022-09-22T14:33:05.770Z,102171.38
2022-09-22T14:36:18.356Z,102155.13
2022-09-22T14:39:31.910Z,102150.84
2022-09-22T14:42:36.181Z,102156.56
2022-09-22T14:45:58.844Z,102154.16
2022-09-22T14:49:40.787Z,102161.47
2022-09-22T14:52:56.400Z,102158.41
2022-09-22T14:56:06.785Z,102157.34
2022-09-22T14:59:36.116Z,102147.41
2022-09-22T15:02:47.062Z,102144.56
2022-09-22T15:05:51.518Z,102141.66
2022-09-22T15:08:55.663Z,102141.03
2022-09-22T15:12:02.225Z,102136.84
2022-09-22T15:15:17.571Z,102145.03
2022-09-22T15:18:23.508Z,102138.59
2022-09-22T15:21:30.076Z,102140.69
2022-09-22T15:24:33.638Z,102136.09
2022-09-22T15:27:42.015Z,102149.13
2022-09-22T15:30:47.652Z,102135.16
2022-09-22T15:33:52.918Z,102142.78
2022-09-22T15:36:57.371Z,102140.19
2022-09-22T15:40:01.571Z,102137.19
2022-09-22T15:43:13.028Z,102126.44
2022-09-22T15:46:34.033Z,102127.88
2022-09-22T15:49:40.249Z,102130.72
2022-09-22T15:52:45.224Z,102117.56
2022-09-22T15:55:49.082Z,102113.34
2022-09-22T15:58:53.803Z,102115.09
2022-09-22T16:01:59.511Z,102111.22
2022-09-22T16:05:05.344Z,102112.91
2022-09-22T16:08:13.359Z,102116.00
2022-09-22T16:11:24.364Z,102107.72
2022-09-22T16:14:27.929Z,102097.59
2022-09-22T16:17:31.614Z,102097.53
2022-09-22T16:20:38.295Z,102097.13
2022-09-22T16:23:41.974Z,102096.78
2022-09-22T16:26:46.023Z,102089.34
2022-09-22T16:29:49.587Z,102083.38
2022-09-22T16:32:54.087Z,102082.59
2022-09-22T16:35:59.098Z,102075.81
2022-09-22T16:39:03.742Z,102077.28
2022-09-22T16:42:08.609Z,102073.13
2022-09-22T16:45:39.175Z,102068.66
2022-09-22T16:48:42.956Z,102074.56
2022-09-22T16:51:50.615Z,102073.16
2022-09-22T16:54:54.214Z,102075.59
2022-09-22T16:57:58.935Z,102082.91
2022-09-22T17:01:04.552Z,102078.84
2022-09-22T17:04:10.457Z,102080.09
2022-09-22T17:07:17.453Z,102077.88
2022-09-22T17:10:21.276Z,102082.66
2022-09-22T17:13:27.956Z,102076.94
2022-09-22T17:16:34.133Z,102073.66
2022-09-22T17:19:37.820Z,102084.56
2022-09-22T17:22:42.740Z,102079.63
2022-09-22T17:25:48.235Z,102078.16
2022-09-22T17:28:52.782Z,102073.16
2022-09-22T17:32:00.006Z,102073.38
2022-09-22T17:35:03.634Z,102071.91
2022-09-22T17:38:08.695Z,102081.75
2022-09-22T17:41:13.363Z,102076.75
2022-09-22T17:44:21.692Z,102077.09
2022-09-22T17:47:42.842Z,102064.97
2022-09-22T17:51:08.530Z,102072.28
2022-09-22T17:54:38.917Z,102075.09
2022-09-22T17:57:45.532Z,102070.09
2022-09-22T18:00:49.760Z,102071.97
2022-09-22T18:03:54.643Z,102073.88
2022-09-22T18:07:00.167Z,102071.44
2022-09-22T18:10:07.425Z,102076.06
2022-09-22T18:13:11.251Z,102071.91
2022-09-22T18:16:21.222Z,102076.53
2022-09-22T18:19:27.720Z,102067.03
2022-09-22T18:22:31.493Z,102070.66
2022-09-22T18:25:36.671Z,102070.88
2022-09-22T18:28:40.659Z,102065.75
2022-09-22T18:31:45.540Z,102068.53
2022-09-22T18:34:53.012Z,102072.13
2022-09-22T18:37:56.787Z,102066.19
2022-09-22T18:41:01.767Z,102073.22
2022-09-22T18:44:06.592Z,102071.47
2022-09-22T18:47:14.866Z,102074.22
2022-09-22T18:50:18.798Z,102077.75
2022-09-22T18:53:22.916Z,102082.19
2022-09-22T18:56:28.388Z,102077.88
2022-09-22T18:59:32.328Z,102078.03
2022-09-22T19:02:36.127Z,102080.75
2022-09-22T19:05:40.056Z,102080.06
2022-09-22T19:08:44.518Z,102079.25
2022-09-22T19:11:53.481Z,102083.81
2022-09-22T19:14:57.359Z,102084.88
2022-09-22T19:18:00.958Z,102091.94
2022-09-22T19:21:04.820Z,102089.44
2022-09-22T19:24:09.735Z,102086.88
2022-09-22T19:27:17.787Z,102081.69
2022-09-22T19:30:24.762Z,102086.13
2022-09-22T19:33:30.160Z,102083.56
2022-09-22T19:36:34.670Z,102087.16
2022-09-22T19:39:38.248Z,102083.72
2022-09-22T19:42:43.286Z,102091.72
2022-09-22T19:45:46.872Z,102082.16
2022-09-22T19:48:50.816Z,102081.38
2022-09-22T19:51:54.697Z,102084.94
2022-09-22T19:54:58.322Z,102091.16
2022-09-22T19:58:03.306Z,102082.44
2022-09-22T20:01:09.421Z,102087.75
2022-09-22T20:04:17.379Z,102079.97
2022-09-22T20:07:21.000Z,102076.50
2022-09-22T20:10:25.207Z,102080.91
2022-09-22T20:13:47.498Z,102073.03
2022-09-22T20:16:54.136Z,102073.13
2022-09-22T20:19:57.770Z,102071.41
2022-09-22T20:23:01.633Z,102074.06
2022-09-22T20:26:05.301Z,102070.59
2022-09-22T20:29:11.028Z,102068.91
2022-09-22T20:32:14.686Z,102065.44
2022-09-22T20:35:21.965Z,102068.94
2022-09-22T20:38:25.865Z,102073.31
2022-09-22T20:41:30.375Z,102071.56
2022-09-22T20:44:38.634Z,102070.72
2022-09-22T20:47:42.527Z,102062.03
2022-09-22T20:50:46.262Z,102061.19
2022-09-22T20:53:49.989Z,102058.66
2022-09-22T20:56:54.516Z,102057.78
2022-09-22T21:00:01.881Z,102057.84
2022-09-22T21:03:06.372Z,102057.00
2022-09-22T21:06:13.496Z,102058.78
2022-09-22T21:09:34.388Z,102056.19
2022-09-22T21:12:39.907Z,102061.44
2022-09-22T21:15:47.671Z,102050.09
2022-09-22T21:18:54.201Z,102059.72
2022-09-22T21:21:57.758Z,102057.09
2022-09-22T21:25:03.337Z,102050.13
2022-09-22T21:28:07.520Z,102050.19
2022-09-22T21:31:14.791Z,102049.28
2022-09-22T21:34:18.948Z,102051.06
2022-09-22T21:37:23.426Z,102041.47
2022-09-22T21:40:27.110Z,102039.72
2022-09-22T21:43:31.600Z,102042.38
2022-09-22T21:46:41.078Z,102034.53
2022-09-22T21:49:44.784Z,102038.94
2022-09-22T21:52:48.433Z,102028.47
2022-09-22T21:56:02.850Z,102025.84
2022-09-22T21:59:06.850Z,102023.28
2022-09-22T22:02:11.896Z,102020.69
2022-09-22T22:05:16.109Z,102024.16
2022-09-22T22:08:20.595Z,102020.72
2022-09-22T22:11:26.642Z,102019.81
2022-09-22T22:14:32.898Z,102014.63
2022-09-22T22:17:37.910Z,102010.28
2022-09-22T22:20:41.616Z,102006.84
2022-09-22T22:23:47.811Z,102005.09
2022-09-22T22:26:56.848Z,102003.41
2022-09-22T22:30:00.468Z,102002.53
2022-09-22T22:33:05.659Z,102000.81
2022-09-22T22:36:12.376Z,101999.97
2022-09-22T22:39:16.496Z,102002.56
2022-09-22T22:42:20.108Z,102003.47
2022-09-22T22:45:25.842Z,101999.13
2022-09-22T22:48:31.246Z,101995.63
2022-09-22T22:51:36.782Z,101992.16
2022-09-22T22:54:40.385Z,101996.53
2022-09-22T22:57:43.997Z,101993.09
2022-09-22T23:00:47.600Z,101993.97
2022-09-22T23:03:55.139Z,101990.47
2022-09-22T23:06:58.755Z,101991.38
2022-09-22T23:10:07.237Z,101984.44
2022-09-22T23:13:10.875Z,101980.97
2022-09-22T23:16:17.322Z,101979.22
2022-09-22T23:19:22.474Z,101976.63
2022-09-22T23:22:26.478Z,101975.78
2022-09-22T23:25:30.072Z,101977.53
2022-09-22T23:28:36.272Z,101974.09
2022-09-22T23:31:39.855Z,101977.59
2022-09-22T23:34:44.930Z,101975.88
2022-09-22T23:37:48.435Z,101969.81
2022-09-22T23:40:52.011Z,101960.25
2022-09-22T23:43:55.528Z,101963.72
2022-09-22T23:46:59.719Z,101958.56
2022-09-22T23:50:04.993Z,101963.78
2022-09-22T23:53:08.600Z,101958.56
2022-09-22T23:56:12.266Z,101957.72
2022-09-22T23:59:15.960Z,101953.38
